Time;durP1;ratioP1;P1;durP2;ratioP2;P2;SDS_P1;SDS_P2;PMS_P1;PMS_P2;Temp;Humidity;BMP_temperature;BMP_pressure;BME280_temperature;BME280_humidity;BME280_pressure;Samples;Min_cycle;Max_cycle;Signal;HPM_P1;HPM_P2
2022/06/03 00:01:01;;;;;;;4.45;1.80;;;14.50;56.00;;;;;;4825858;29;20455;-75
2022/06/03 00:03:54;;;;;;;4.13;2.00;;;14.50;56.10;;;;;;4843285;29;20133;-74
2022/06/03 00:06:31;;;;;;;3.03;1.83;;;14.40;56.10;;;;;;4849750;29;20053;-74
2022/06/03 00:09:24;;;;;;;2.60;1.95;;;14.40;56.20;;;;;;4831294;29;20092;-74
2022/06/03 00:12:23;;;;;;;2.97;2.03;;;14.30;56.20;;;;;;4832065;29;20398;-74
2022/06/03 00:14:49;;;;;;;2.70;1.88;;;14.30;56.20;;;;;;4783782;29;20061;-74
2022/06/03 00:17:25;;;;;;;2.47;1.90;;;14.30;56.40;;;;;;4803543;29;20051;-74
2022/06/03 00:20:02;;;;;;;2.88;2.17;;;14.20;56.40;;;;;;4781740;29;20063;-74
2022/06/03 00:23:23;;;;;;;3.47;1.88;;;14.20;56.50;;;;;;4799174;29;20070;-74
2022/06/03 00:26:19;;;;;;;3.10;1.85;;;14.20;56.40;;;;;;4781676;29;20069;-75
2022/06/03 00:29:00;;;;;;;3.22;2.15;;;14.10;56.60;;;;;;4803131;29;20514;-74
2022/06/03 00:31:39;;;;;;;3.58;2.78;;;14.10;56.70;;;;;;4776161;29;20051;-74
2022/06/03 00:34:37;;;;;;;6.95;3.20;;;14.10;56.80;;;;;;4774124;30;20070;-74
2022/06/03 00:37:38;;;;;;;4.30;2.67;;;14.00;56.80;;;;;;4779792;29;20051;-73
2022/06/03 00:40:18;;;;;;;5.03;2.20;;;14.00;57.00;;;;;;4748425;30;20157;-74
2022/06/03 00:43:02;;;;;;;4.85;2.78;;;14.00;57.00;;;;;;4750909;30;20055;-74
2022/06/03 00:45:55;;;;;;;5.03;2.42;;;13.90;57.00;;;;;;4740923;30;20159;-73
2022/06/03 00:48:39;;;;;;;4.95;2.60;;;13.90;57.00;;;;;;4767862;30;20044;-73
2022/06/03 00:51:24;;;;;;;6.30;4.03;;;13.90;57.10;;;;;;4769956;29;20132;-74
2022/06/03 00:54:04;;;;;;;3.47;2.65;;;13.80;57.20;;;;;;4795046;29;20090;-74
2022/06/03 00:57:08;;;;;;;6.05;3.13;;;13.80;57.30;;;;;;4817360;29;20051;-74
2022/06/03 00:59:53;;;;;;;3.63;2.55;;;13.80;57.40;;;;;;4794299;29;20098;-74
2022/06/03 01:02:50;;;;;;;3.83;2.70;;;13.70;57.50;;;;;;4805054;29;20452;-74
2022/06/03 01:05:31;;;;;;;4.80;2.85;;;13.70;57.60;;;;;;4805306;29;20078;-73
2022/06/03 01:08:05;;;;;;;2.83;2.15;;;13.60;57.70;;;;;;4801082;29;20510;-74
2022/06/03 01:10:48;;;;;;;3.47;2.58;;;13.60;57.80;;;;;;4793310;29;20069;-74
2022/06/03 01:13:14;;;;;;;4.85;3.55;;;13.60;57.90;;;;;;4812046;29;20054;-74
2022/06/03 01:15:58;;;;;;;3.97;2.72;;;13.50;57.80;;;;;;4796666;29;20411;-74
2022/06/03 01:18:37;;;;;;;5.80;3.33;;;13.50;58.00;;;;;;4830225;29;20046;-74
2022/06/03 01:21:30;;;;;;;4.97;3.20;;;13.40;58.00;;;;;;4831030;29;20506;-74
2022/06/03 01:24:20;;;;;;;4.75;3.78;;;13.40;58.20;;;;;;4844522;29;20144;-74
2022/06/03 01:26:46;;;;;;;4.60;2.53;;;13.40;58.30;;;;;;4839753;29;20049;-73
2022/06/03 01:29:38;;;;;;;5.35;2.65;;;13.30;58.40;;;;;;4838472;29;20063;-74
2022/06/03 01:32:24;;;;;;;3.83;2.60;;;13.30;58.50;;;;;;4861350;29;20393;-74
2022/06/03 01:35:24;;;;;;;4.05;2.75;;;13.20;58.50;;;;;;4829205;29;20142;-74
2022/06/03 01:37:58;;;;;;;5.85;3.40;;;13.20;58.50;;;;;;4831842;29;20049;-74
2022/06/03 01:40:57;;;;;;;4.10;2.38;;;13.20;58.60;;;;;;4859071;29;20121;-75
2022/06/03 01:43:29;;;;;;;3.65;2.20;;;13.20;58.70;;;;;;4831587;29;20045;-74
2022/06/03 01:46:18;;;;;;;3.67;2.08;;;13.10;58.60;;;;;;4855675;29;20061;-74
2022/06/03 01:48:51;;;;;;;3.00;2.50;;;13.10;58.60;;;;;;4835034;29;20041;-75
2022/06/03 01:51:51;;;;;;;4.00;2.25;;;13.10;58.60;;;;;;4861871;29;20049;-75
2022/06/03 01:54:55;;;;;;;4.03;2.25;;;13.20;58.70;;;;;;4856262;29;20038;-75
2022/06/03 01:57:23;;;;;;;2.85;2.33;;;13.10;58.60;;;;;;4829940;29;20058;-74
2022/06/03 01:59:58;;;;;;;3.28;2.40;;;13.10;58.70;;;;;;4855029;29;20446;-75
2022/06/03 02:02:45;;;;;;;4.00;2.58;;;13.10;58.70;;;;;;4845854;29;20048;-75
2022/06/03 02:05:26;;;;;;;3.60;2.15;;;13.10;58.70;;;;;;4870143;29;20128;-75
2022/06/03 02:08:18;;;;;;;3.13;2.13;;;13.10;58.70;;;;;;4849881;29;20092;-75
2022/06/03 02:11:12;;;;;;;7.00;3.28;;;13.10;58.70;;;;;;4844818;29;20068;-74
2022/06/03 02:14:03;;;;;;;4.50;2.90;;;13.10;58.80;;;;;;4862093;29;20490;-74
2022/06/03 02:17:06;;;;;;;4.47;2.88;;;13.00;59.20;;;;;;4850621;29;20057;-75
2022/06/03 02:19:52;;;;;;;5.75;3.03;;;13.00;58.90;;;;;;4858139;29;20045;-75
2022/06/03 02:22:50;;;;;;;5.53;2.35;;;13.00;59.00;;;;;;4832237;29;20062;-74
2022/06/03 02:25:53;;;;;;;4.22;2.38;;;12.90;58.90;;;;;;4861529;29;20065;-74
2022/06/03 02:28:34;;;;;;;5.03;2.53;;;12.90;59.00;;;;;;4847778;29;20122;-74
2022/06/03 02:31:27;;;;;;;4.32;2.70;;;12.90;59.10;;;;;;4858054;29;20061;-74
2022/06/03 02:34:27;;;;;;;4.60;2.50;;;12.90;59.10;;;;;;4858971;29;20106;-74
2022/06/03 02:37:34;;;;;;;4.03;2.50;;;12.80;59.10;;;;;;4845641;29;20497;-75
2022/06/03 02:40:17;;;;;;;5.47;2.53;;;12.80;59.10;;;;;;4849135;29;20055;-74
2022/06/03 02:43:13;;;;;;;3.63;2.20;;;12.80;59.10;;;;;;4848236;29;20042;-74
2022/06/03 02:45:57;;;;;;;2.88;2.30;;;12.80;59.20;;;;;;4852435;29;20053;-74
2022/06/03 02:48:56;;;;;;;3.08;2.45;;;12.80;59.20;;;;;;4842148;29;20049;-74
2022/06/03 02:51:45;;;;;;;3.83;2.90;;;12.80;59.20;;;;;;4832573;29;20061;-74
2022/06/03 02:54:17;;;;;;;5.60;3.75;;;12.80;59.20;;;;;;4860891;29;20049;-75
2022/06/03 02:57:03;;;;;;;4.88;3.35;;;12.70;59.40;;;;;;4843961;29;20498;-74
2022/06/03 03:00:00;;;;;;;2.67;2.30;;;12.70;59.50;;;;;;4830021;29;20073;-74
2022/06/03 03:02:36;;;;;;;6.20;3.95;;;12.70;59.50;;;;;;4829955;29;20136;-74
2022/06/03 03:05:02;;;;;;;4.55;3.25;;;12.60;59.50;;;;;;4837174;29;20049;-75
2022/06/03 03:07:43;;;;;;;4.80;3.03;;;12.60;59.60;;;;;;4861796;29;20057;-75
2022/06/03 03:10:27;;;;;;;5.03;3.22;;;12.60;59.70;;;;;;4854242;29;20502;-75
2022/06/03 03:13:09;;;;;;;6.57;3.40;;;12.50;59.70;;;;;;4857461;29;20560;-75
2022/06/03 03:15:42;;;;;;;5.22;3.75;;;12.50;59.90;;;;;;4832885;29;20505;-75
2022/06/03 03:18:44;;;;;;;6.20;4.43;;;12.50;60.00;;;;;;4828075;29;20050;-75
2022/06/03 03:21:40;;;;;;;5.60;3.63;;;12.40;60.10;;;;;;4837033;29;20053;-74
2022/06/03 03:24:06;;;;;;;5.45;3.85;;;12.30;60.30;;;;;;4853589;29;20518;-74
2022/06/03 03:26:55;;;;;;;8.00;4.28;;;12.30;60.30;;;;;;4848947;29;20053;-75
2022/06/03 03:29:50;;;;;;;7.68;4.30;;;12.30;60.70;;;;;;4850095;29;20133;-75
2022/06/03 03:33:06;;;;;;;6.28;3.78;;;12.20;60.90;;;;;;4788208;29;20056;-75
2022/06/03 03:36:02;;;;;;;8.35;5.00;;;12.10;60.90;;;;;;4732808;30;20060;-75
2022/06/03 03:39:03;;;;;;;9.65;4.90;;;12.10;61.20;;;;;;4750694;30;20114;-75
2022/06/03 03:42:02;;;;;;;7.10;4.70;;;12.10;61.50;;;;;;4735544;30;20060;-75
2022/06/03 03:45:03;;;;;;;6.07;4.80;;;12.00;61.70;;;;;;4718369;30;20065;-75
2022/06/03 03:47:53;;;;;;;8.27;5.63;;;12.00;61.80;;;;;;4735825;30;20052;-75
2022/06/03 03:50:45;;;;;;;6.10;5.00;;;12.00;62.20;;;;;;4722045;30;20053;-75
2022/06/03 03:53:35;;;;;;;6.78;5.05;;;11.90;62.30;;;;;;4719326;30;20056;-75
2022/06/03 03:56:40;;;;;;;7.28;5.88;;;11.90;62.50;;;;;;4736892;30;20091;-75
2022/06/03 03:59:36;;;;;;;5.97;4.93;;;11.90;62.60;;;;;;4742139;30;20517;-75
2022/06/03 04:02:36;;;;;;;5.38;4.00;;;11.80;62.70;;;;;;4721333;30;20076;-75
2022/06/03 04:05:20;;;;;;;4.65;3.30;;;11.80;63.00;;;;;;4733032;30;20522;-75
2022/06/03 04:08:01;;;;;;;7.60;5.07;;;11.80;62.90;;;;;;4736162;30;20063;-75
2022/06/03 04:10:35;;;;;;;5.50;4.30;;;11.80;63.00;;;;;;4742026;30;20302;-75
2022/06/03 04:13:19;;;;;;;4.82;3.53;;;11.80;63.20;;;;;;4769763;30;20460;-74
2022/06/03 04:16:02;;;;;;;7.13;4.13;;;11.80;63.60;;;;;;4786003;30;20070;-75
2022/06/03 04:18:58;;;;;;;5.82;4.05;;;11.80;63.20;;;;;;4849765;29;20553;-75
2022/06/03 04:21:30;;;;;;;8.88;5.45;;;11.80;63.30;;;;;;4838192;29;20057;-75
2022/06/03 04:24:33;;;;;;;5.05;3.95;;;11.80;63.30;;;;;;4830391;29;20050;-75
2022/06/03 04:27:04;;;;;;;5.95;4.07;;;11.80;63.30;;;;;;4836347;29;20069;-75
2022/06/03 04:30:15;;;;;;;4.25;3.55;;;11.80;63.30;;;;;;4850127;29;20434;-76
2022/06/03 04:33:03;;;;;;;6.95;4.10;;;11.80;63.30;;;;;;4828404;29;20057;-75
2022/06/03 04:35:56;;;;;;;6.97;5.35;;;11.90;63.30;;;;;;4831218;29;20054;-75
2022/06/03 04:39:04;;;;;;;4.28;3.83;;;11.90;63.60;;;;;;4836953;29;20049;-75
2022/06/03 04:41:47;;;;;;;7.82;6.00;;;11.90;63.60;;;;;;4857284;29;20046;-75
2022/06/03 04:44:16;;;;;;;7.15;5.82;;;11.80;63.70;;;;;;4839773;29;20061;-75
2022/06/03 04:47:19;;;;;;;9.70;6.57;;;11.90;63.90;;;;;;4843135;29;20057;-75
2022/06/03 04:50:03;;;;;;;6.60;5.72;;;11.90;64.30;;;;;;4843629;29;20054;-75
2022/06/03 04:52:51;;;;;;;6.70;5.33;;;11.90;64.50;;;;;;4857814;29;20045;-74
2022/06/03 04:55:55;;;;;;;7.35;5.43;;;11.90;64.60;;;;;;4817353;29;20058;-75
2022/06/03 04:58:55;;;;;;;8.35;6.43;;;11.90;64.80;;;;;;4792376;29;20551;-74
2022/06/03 05:01:44;;;;;;;10.20;6.82;;;11.90;65.00;;;;;;4797556;29;20141;-74
2022/06/03 05:04:43;;;;;;;9.10;6.50;;;11.90;65.10;;;;;;4822455;29;20518;-74
2022/06/03 05:07:37;;;;;;;8.65;6.78;;;11.90;65.50;;;;;;4801750;29;20062;-75
2022/06/03 05:10:08;;;;;;;9.73;7.47;;;11.90;65.60;;;;;;4822397;29;20061;-74
2022/06/03 05:13:19;;;;;;;9.48;7.05;;;11.90;65.90;;;;;;4821241;29;20533;-74
2022/06/03 05:16:21;;;;;;;8.27;5.97;;;12.10;66.30;;;;;;4802267;29;20062;-74
2022/06/03 05:18:52;;;;;;;8.43;6.70;;;12.20;66.80;;;;;;4810564;29;20427;-75
2022/06/03 05:22:02;;;;;;;8.65;6.40;;;12.50;66.20;;;;;;4810785;29;20086;-75
2022/06/03 05:25:05;;;;;;;6.68;5.68;;;12.70;65.90;;;;;;4771333;30;20048;-80
2022/06/03 05:27:45;;;;;;;7.40;6.22;;;13.00;65.30;;;;;;4772110;30;20497;-75
2022/06/03 05:30:14;;;;;;;8.23;5.25;;;13.30;64.60;;;;;;4770905;30;20062;-75
2022/06/03 05:33:13;;;;;;;6.63;5.28;;;13.50;64.10;;;;;;4773394;30;20516;-74
2022/06/03 05:36:04;;;;;;;7.35;5.22;;;13.80;63.60;;;;;;4779098;29;20060;-76
2022/06/03 05:39:11;;;;;;;5.50;4.65;;;14.20;62.20;;;;;;4806075;29;20096;-77
2022/06/03 05:42:29;;;;;;;7.57;4.25;;;14.50;62.00;;;;;;4800713;29;20520;-77
2022/06/03 05:45:17;;;;;;;6.40;4.95;;;15.00;60.70;;;;;;4793781;29;20047;-77
2022/06/03 05:47:51;;;;;;;5.38;4.63;;;15.40;59.80;;;;;;4791213;29;20508;-76
2022/06/03 05:50:32;;;;;;;;;;;15.60;58.90;;;;;;4789572;29;20062;-77
2022/06/03 05:53:25;;;;;;;6.03;4.07;;;15.70;58.90;;;;;;4794169;29;20318;-79
2022/06/03 05:56:18;;;;;;;5.82;3.72;;;16.00;58.20;;;;;;4800717;29;20057;-80
2022/06/03 05:58:52;;;;;;;5.57;3.58;;;16.40;58.00;;;;;;4806272;29;20133;-78
2022/06/03 06:01:45;;;;;;;9.15;4.25;;;16.80;57.30;;;;;;4848056;29;20515;-79
2022/06/03 06:04:32;;;;;;;6.53;4.00;;;17.20;55.90;;;;;;4843848;29;20064;-80
2022/06/03 06:07:21;;;;;;;5.35;3.72;;;17.60;54.90;;;;;;4826091;29;20149;-81
2022/06/03 06:10:13;;;;;;;5.38;3.92;;;17.80;54.50;;;;;;4825204;29;20110;-80
2022/06/03 06:13:12;;;;;;;8.43;4.00;;;18.20;53.70;;;;;;4844889;29;20045;-81
2022/06/03 06:15:47;;;;;;;3.58;3.15;;;18.50;53.80;;;;;;4839692;29;20069;-81
2022/06/03 06:18:45;;;;;;;6.40;4.20;;;18.80;53.00;;;;;;4837644;29;20052;-81
2022/06/03 06:21:17;;;;;;;5.00;3.83;;;19.10;52.40;;;;;;4842350;29;20046;-81
2022/06/03 06:24:04;;;;;;;5.97;3.58;;;19.40;52.10;;;;;;4844502;29;20052;-81
2022/06/03 06:26:45;;;;;;;4.40;3.30;;;19.60;51.00;;;;;;4836497;29;20395;-81
2022/06/03 06:29:25;;;;;;;6.15;3.20;;;19.80;50.60;;;;;;4829355;29;20042;-82
2022/06/03 06:32:10;;;;;;;6.15;3.80;;;19.90;49.50;;;;;;4834855;29;20052;-80
2022/06/03 06:34:47;;;;;;;4.80;3.17;;;20.00;48.90;;;;;;4844763;29;20054;-81
2022/06/03 06:37:31;;;;;;;4.38;3.03;;;20.00;48.90;;;;;;4844121;29;20050;-81
2022/06/03 06:40:19;;;;;;;5.13;3.42;;;20.00;48.80;;;;;;4831995;29;20159;-81
2022/06/03 06:42:51;;;;;;;4.95;3.20;;;20.10;48.60;;;;;;4840722;29;20041;-81
2022/06/03 06:45:38;;;;;;;5.55;3.00;;;20.20;48.90;;;;;;4844781;29;20046;-81
2022/06/03 06:48:23;;;;;;;6.28;3.15;;;20.30;47.60;;;;;;4844027;29;20056;-80
2022/06/03 06:51:16;;;;;;;;;;;20.50;47.70;;;;;;4843346;29;20050;-81
2022/06/03 06:54:02;;;;;;;4.55;2.78;;;20.60;48.60;;;;;;4825272;29;20450;-81
2022/06/03 06:56:41;;;;;;;7.50;3.13;;;20.80;47.40;;;;;;4783067;29;20105;-81
2022/06/03 06:59:13;;;;;;;4.50;2.38;;;21.00;46.00;;;;;;4778198;30;20134;-81
2022/06/03 07:01:53;;;;;;;4.88;2.25;;;21.10;45.50;;;;;;4787287;30;20066;-81
2022/06/03 07:50:03;;;;;;;4.47;2.45;;;21.60;43.70;;;;;;5363642;24;20070;-83
2022/06/03 07:52:43;;;;;;;5.50;2.90;;;21.70;44.90;;;;;;4835632;29;20145;-76
2022/06/03 07:55:16;;;;;;;4.63;2.80;;;21.80;44.50;;;;;;4816908;29;20042;-78
2022/06/03 07:57:49;;;;;;;4.85;2.95;;;21.80;44.70;;;;;;4814367;29;20054;-82
2022/06/03 08:00:18;;;;;;;6.60;3.08;;;21.90;45.00;;;;;;4838807;29;20097;-83
2022/06/03 08:02:44;;;;;;;4.65;3.00;;;21.90;45.20;;;;;;4835726;29;20089;-87
2022/06/03 08:05:18;;;;;;;4.72;2.65;;;22.10;44.40;;;;;;4842281;29;20428;-80
2022/06/03 08:13:20;;;;;;;3.45;2.65;;;22.30;44.30;;;;;;4835565;29;20171;-83
2022/06/03 08:16:00;;;;;;;4.40;2.70;;;22.40;44.50;;;;;;4845185;29;20498;-83
2022/06/03 08:18:32;;;;;;;4.57;2.75;;;22.60;44.60;;;;;;4842343;29;20390;-77
2022/06/03 08:21:06;;;;;;;7.60;3.13;;;22.70;44.40;;;;;;4840398;29;20101;-80
2022/06/03 08:23:34;;;;;;;5.43;3.08;;;22.90;44.80;;;;;;4843886;29;20087;-80
2022/06/03 08:26:03;;;;;;;5.55;2.75;;;23.00;44.50;;;;;;4829235;29;20129;-79
2022/06/03 08:28:33;;;;;;;4.63;2.90;;;23.10;43.40;;;;;;4839989;29;20085;-79
2022/06/03 08:31:01;;;;;;;5.05;2.88;;;23.10;43.20;;;;;;4829052;29;20042;-79
2022/06/03 08:33:49;;;;;;;5.13;3.05;;;23.10;43.60;;;;;;4827084;29;20483;-79
2022/06/03 08:36:19;;;;;;;5.72;3.00;;;23.30;43.90;;;;;;4811135;29;20444;-78
2022/06/03 08:38:55;;;;;;;4.93;3.30;;;23.40;43.80;;;;;;4831067;29;20061;-78
2022/06/03 08:41:43;;;;;;;5.20;3.33;;;23.40;42.10;;;;;;4841865;29;20053;-77
2022/06/03 08:44:20;;;;;;;5.30;3.85;;;23.40;42.10;;;;;;4824646;29;20051;-77
2022/06/03 08:47:19;;;;;;;5.82;3.85;;;23.20;42.20;;;;;;4829251;29;20050;-77
2022/06/03 08:50:19;;;;;;;4.03;3.10;;;23.20;43.10;;;;;;4759630;30;20066;-77
2022/06/03 08:53:00;;;;;;;4.45;3.42;;;23.10;42.70;;;;;;4714284;30;20065;-77
2022/06/03 08:55:43;;;;;;;4.80;3.28;;;23.20;42.90;;;;;;4701108;30;20069;-77
2022/06/03 08:58:36;;;;;;;4.95;3.33;;;23.20;42.60;;;;;;4724535;30;20513;-76
2022/06/03 09:01:25;;;;;;;5.55;3.50;;;23.30;43.00;;;;;;4718633;30;20069;-77
2022/06/03 09:04:09;;;;;;;5.65;3.30;;;23.40;41.80;;;;;;4720459;30;20068;-76
2022/06/03 09:06:44;;;;;;;5.32;3.65;;;23.40;42.20;;;;;;4717828;30;20145;-77
2022/06/03 09:09:31;;;;;;;4.70;3.47;;;23.40;42.40;;;;;;4732580;30;20063;-82
2022/06/03 09:12:07;;;;;;;5.20;4.05;;;23.40;41.30;;;;;;4732666;30;20045;-77
2022/06/03 09:14:33;;;;;;;6.55;3.35;;;23.30;40.90;;;;;;4718156;30;20061;-77
2022/06/03 09:17:07;;;;;;;6.25;3.47;;;23.20;41.60;;;;;;4717889;30;20060;-76
2022/06/03 09:19:45;;;;;;;5.55;3.10;;;23.10;41.50;;;;;;4727980;30;20097;-78
2022/06/03 09:22:15;;;;;;;5.68;3.03;;;23.20;42.20;;;;;;4725547;30;20064;-77
2022/06/03 09:24:43;;;;;;;5.63;3.28;;;23.20;43.00;;;;;;4732803;30;20301;-77
2022/06/03 09:27:11;;;;;;;3.83;3.15;;;23.20;42.40;;;;;;4728787;29;20067;-77
2022/06/03 09:29:39;;;;;;;5.20;3.08;;;23.10;42.00;;;;;;4816743;29;20078;-82
2022/06/03 09:32:07;;;;;;;5.70;3.30;;;23.00;41.30;;;;;;4818656;29;20043;-78
2022/06/03 09:34:46;;;;;;;6.18;3.10;;;22.70;41.10;;;;;;4825597;29;20479;-78
2022/06/03 09:37:20;;;;;;;6.10;3.42;;;22.60;42.50;;;;;;4823512;29;20129;-79
2022/06/03 09:39:48;;;;;;;7.88;5.45;;;22.40;42.50;;;;;;4822356;29;20050;-77
2022/06/03 09:42:16;;;;;;;7.57;4.18;;;22.40;43.10;;;;;;4818487;29;20054;-78
2022/06/03 09:44:45;;;;;;;4.82;3.13;;;22.40;42.70;;;;;;4827873;29;20042;-82
2022/06/03 09:47:14;;;;;;;4.90;3.00;;;22.40;43.00;;;;;;4824032;29;20504;-82
2022/06/03 09:49:40;;;;;;;3.88;2.60;;;22.40;42.30;;;;;;4840870;29;20095;-79
2022/06/03 09:52:12;;;;;;;3.67;2.20;;;22.30;42.00;;;;;;4815859;29;20062;-79
2022/06/03 09:54:43;;;;;;;4.32;2.67;;;22.30;43.90;;;;;;4810546;29;20491;-78
2022/06/03 09:57:30;;;;;;;6.18;3.78;;;22.30;43.80;;;;;;4818660;29;20141;-78
2022/06/03 09:59:57;;;;;;;5.18;2.80;;;22.40;43.30;;;;;;4803561;29;20059;-79
2022/06/03 10:02:24;;;;;;;5.57;2.92;;;22.40;43.70;;;;;;4821856;29;20058;-78
2022/06/03 10:04:50;;;;;;;5.55;3.05;;;22.30;43.50;;;;;;4822656;29;20053;-83
2022/06/03 10:07:17;;;;;;;3.33;2.83;;;22.20;43.00;;;;;;4792470;29;20403;-76
2022/06/03 10:12:55;;;;;;;5.10;2.60;;;21.90;42.90;;;;;;4823072;29;20125;-78
2022/06/03 10:15:39;;;;;;;4.20;2.72;;;21.90;42.90;;;;;;4814516;29;20058;-77
2022/06/03 10:18:22;;;;;;;3.80;2.40;;;21.90;42.80;;;;;;4826119;29;20154;-78
2022/06/03 10:20:50;;;;;;;9.25;3.30;;;22.00;44.60;;;;;;4808064;29;20086;-79
2022/06/03 10:23:20;;;;;;;5.93;2.20;;;22.10;43.70;;;;;;4818320;29;20059;-77
2022/06/03 10:25:49;;;;;;;3.90;2.63;;;22.20;42.00;;;;;;4811201;29;20054;-77
2022/06/03 10:28:16;;;;;;;3.35;1.80;;;22.30;41.20;;;;;;4815924;29;20468;-77
2022/06/03 10:30:43;;;;;;;3.95;2.60;;;22.30;41.30;;;;;;4819442;29;20042;-78
2022/06/03 10:33:16;;;;;;;4.95;2.60;;;22.30;41.60;;;;;;4816816;29;20403;-80
2022/06/03 10:35:42;;;;;;;101.67;91.87;;;22.30;42.40;;;;;;4815610;29;20065;-78
2022/06/03 10:38:08;;;;;;;6.15;4.32;;;22.40;42.60;;;;;;4810557;29;20108;-78
2022/06/03 10:40:35;;;;;;;5.43;2.70;;;22.40;43.00;;;;;;4824470;29;20054;-79
2022/06/03 10:43:03;;;;;;;6.15;2.55;;;22.40;41.80;;;;;;4823222;29;20070;-80
2022/06/03 10:45:32;;;;;;;4.65;2.50;;;22.50;41.20;;;;;;4820634;29;20512;-79
2022/06/03 10:47:58;;;;;;;4.43;2.22;;;22.40;41.60;;;;;;4791980;29;20092;-78
2022/06/03 10:50:26;;;;;;;4.32;2.75;;;22.40;41.10;;;;;;4807548;29;20089;-79
2022/06/03 11:01:34;;;;;;;4.22;2.20;;;22.60;42.30;;;;;;4809749;29;20383;-79
2022/06/03 11:04:00;;;;;;;3.17;2.22;;;22.70;41.60;;;;;;4823903;29;20034;-79
2022/06/03 11:06:34;;;;;;;2.45;1.75;;;22.80;41.20;;;;;;4824029;29;20047;-79
2022/06/03 11:09:02;;;;;;;4.88;2.22;;;22.80;40.80;;;;;;4813926;29;20495;-79
2022/06/03 11:11:49;;;;;;;3.83;2.20;;;22.90;40.80;;;;;;4807823;29;20396;-79
2022/06/03 11:14:35;;;;;;;5.00;2.17;;;22.90;40.00;;;;;;4815060;29;20039;-79
2022/06/03 11:17:09;;;;;;;2.95;2.00;;;22.90;40.30;;;;;;4812535;29;20050;-79
2022/06/03 11:19:44;;;;;;;3.95;2.03;;;22.80;40.70;;;;;;4824623;29;20502;-78
2022/06/03 11:22:32;;;;;;;3.13;1.35;;;22.80;40.80;;;;;;4809094;29;20483;-79
2022/06/03 11:25:02;;;;;;;3.13;1.98;;;22.80;39.50;;;;;;4825378;29;20058;-79
2022/06/03 11:27:46;;;;;;;2.30;1.65;;;22.80;40.60;;;;;;4813688;29;20062;-78
2022/06/03 11:30:29;;;;;;;2.63;1.85;;;23.00;41.30;;;;;;4814784;29;20053;-78
2022/06/03 11:33:01;;;;;;;3.83;2.00;;;23.10;40.70;;;;;;4804555;29;20449;-77
2022/06/03 11:35:33;;;;;;;2.65;1.50;;;23.20;40.50;;;;;;4814938;29;20045;-78
2022/06/03 11:38:03;;;;;;;2.30;1.52;;;23.30;40.90;;;;;;4807416;29;20112;-79
2022/06/03 11:40:35;;;;;;;2.47;1.75;;;23.40;40.40;;;;;;4793856;29;20087;-78
2022/06/03 11:43:10;;;;;;;4.28;2.05;;;23.40;39.30;;;;;;4824628;29;20073;-78
2022/06/03 11:45:45;;;;;;;3.03;1.80;;;23.30;39.20;;;;;;4790736;29;20050;-79
2022/06/03 11:48:33;;;;;;;4.40;2.10;;;23.30;39.90;;;;;;4808740;29;20492;-76
2022/06/03 11:51:01;;;;;;;4.05;1.80;;;23.20;40.00;;;;;;4789813;29;20059;-83
2022/06/03 11:53:33;;;;;;;4.18;1.70;;;23.20;39.90;;;;;;4832310;29;20113;-83
2022/06/03 11:56:02;;;;;;;2.97;1.50;;;23.30;40.30;;;;;;4801023;29;20055;-84
2022/06/03 11:58:46;;;;;;;3.30;1.83;;;23.40;40.90;;;;;;4822632;29;20070;-81
2022/06/03 12:01:42;;;;;;;4.38;1.52;;;23.60;40.90;;;;;;4807966;29;20137;-81
2022/06/03 12:04:21;;;;;;;5.03;1.95;;;23.60;39.10;;;;;;4801233;29;20061;-82
2022/06/03 12:07:15;;;;;;;3.72;2.08;;;23.70;39.70;;;;;;4799889;29;20128;-81
2022/06/03 12:09:59;;;;;;;2.78;1.77;;;23.80;39.00;;;;;;4788712;29;20590;-81
2022/06/03 12:15:34;;;;;;;2.40;1.75;;;23.80;39.20;;;;;;4791497;29;20056;-79
2022/06/03 12:18:06;;;;;;;2.75;1.55;;;23.90;39.00;;;;;;4788075;29;20498;-80
2022/06/03 12:20:31;;;;;;;4.88;1.92;;;23.90;39.50;;;;;;4801539;29;20051;-81
2022/06/03 12:23:18;;;;;;;3.45;1.65;;;24.00;40.00;;;;;;4803610;29;20062;-81
2022/06/03 12:26:03;;;;;;;4.15;2.15;;;24.00;38.60;;;;;;4812308;29;20050;-82
2022/06/03 12:28:45;;;;;;;2.85;1.40;;;24.00;38.60;;;;;;4806692;29;20512;-82
2022/06/03 12:31:22;;;;;;;3.28;2.20;;;24.10;39.20;;;;;;4786944;30;20144;-82
2022/06/03 12:33:58;;;;;;;2.83;1.55;;;24.10;38.10;;;;;;4788302;29;20047;-81
2022/06/03 12:36:46;;;;;;;2.17;1.40;;;24.10;37.90;;;;;;4801881;29;20114;-80
2022/06/03 12:39:18;;;;;;;6.05;3.10;;;24.00;36.90;;;;;;4782990;30;20083;-81
2022/06/03 12:41:46;;;;;;;6.35;2.05;;;23.90;36.80;;;;;;4784742;29;20101;-81
2022/06/03 12:44:34;;;;;;;2.42;1.70;;;23.90;36.80;;;;;;4809764;29;20046;-81
2022/06/03 12:47:18;;;;;;;3.40;2.55;;;23.80;36.60;;;;;;4813531;29;20138;-79
2022/06/03 12:49:43;;;;;;;2.58;1.63;;;23.80;37.60;;;;;;4819852;29;20046;-80
2022/06/03 12:52:20;;;;;;;5.55;1.98;;;23.80;37.20;;;;;;4824025;29;20092;-80
2022/06/03 12:54:54;;;;;;;5.35;2.38;;;23.80;36.80;;;;;;4806395;29;20109;-80
2022/06/03 12:57:26;;;;;;;;;;;23.80;37.50;;;;;;4816714;29;20043;-78
2022/06/03 12:59:58;;;;;;;3.40;1.60;;;23.70;38.80;;;;;;4791237;29;19928;-80
2022/06/03 13:02:31;;;;;;;4.10;1.80;;;23.80;39.40;;;;;;4820148;29;20550;-80
2022/06/03 13:04:58;;;;;;;3.38;1.83;;;23.80;39.10;;;;;;4809952;29;20058;-81
2022/06/03 13:07:26;;;;;;;4.10;2.10;;;23.90;39.30;;;;;;4810448;29;20125;-82
2022/06/03 13:10:04;;;;;;;3.15;1.35;;;23.90;39.10;;;;;;4825704;29;20566;-80
2022/06/03 13:12:32;;;;;;;3.22;1.55;;;24.00;39.30;;;;;;4827691;29;20376;-81
2022/06/03 13:15:16;;;;;;;2.63;1.65;;;23.90;38.90;;;;;;4808789;29;20050;-80
2022/06/03 13:18:10;;;;;;;4.60;1.70;;;24.00;39.20;;;;;;4822830;29;20440;-79
2022/06/03 13:20:35;;;;;;;3.88;1.85;;;24.10;39.10;;;;;;4818016;29;20089;-81
2022/06/03 13:23:01;;;;;;;2.95;1.70;;;24.00;38.90;;;;;;4817881;29;20488;-80
2022/06/03 13:25:31;;;;;;;3.35;1.98;;;24.00;38.60;;;;;;4815270;29;20046;-80
2022/06/03 13:28:16;;;;;;;4.45;1.40;;;24.10;38.70;;;;;;4799443;29;20054;-83
2022/06/03 13:30:41;;;;;;;5.47;1.80;;;24.00;39.30;;;;;;4826033;29;20062;-80
2022/06/03 13:33:27;;;;;;;4.30;1.70;;;24.10;38.40;;;;;;4827527;29;20098;-80
2022/06/03 13:36:09;;;;;;;4.40;2.10;;;24.10;38.50;;;;;;4816313;29;20058;-80
2022/06/03 13:38:42;;;;;;;3.17;2.35;;;24.00;38.90;;;;;;4809723;29;20114;-80
2022/06/03 13:44:18;;;;;;;3.17;1.52;;;24.00;39.50;;;;;;4809566;29;20054;-80
2022/06/03 13:46:48;;;;;;;2.60;1.58;;;24.00;38.80;;;;;;4808602;29;20138;-82
2022/06/03 13:49:22;;;;;;;3.10;1.60;;;24.10;39.00;;;;;;4827432;29;20046;-83
2022/06/03 13:51:52;;;;;;;2.83;2.08;;;24.10;38.70;;;;;;4824984;29;20066;-80
2022/06/03 13:54:29;;;;;;;4.20;2.55;;;24.10;38.20;;;;;;4827009;29;20414;-80
2022/06/03 13:57:13;;;;;;;2.97;1.60;;;24.10;37.90;;;;;;4818029;29;20106;-83
2022/06/03 13:59:41;;;;;;;4.05;1.50;;;24.10;38.50;;;;;;4813732;29;20047;-83
2022/06/03 14:02:30;;;;;;;2.90;1.73;;;24.10;38.10;;;;;;4811101;29;20136;-83
2022/06/03 14:05:04;;;;;;;2.17;1.15;;;24.10;38.20;;;;;;4818759;29;20046;-83
2022/06/03 14:07:35;;;;;;;;;;;24.10;37.60;;;;;;4826561;29;20403;-83
2022/06/03 14:10:18;;;;;;;3.13;1.63;;;24.10;39.00;;;;;;4813798;29;19975;-83
2022/06/03 14:12:59;;;;;;;2.13;1.33;;;24.10;38.00;;;;;;4809284;29;20047;-85
2022/06/03 14:15:38;;;;;;;2.28;1.30;;;24.10;38.10;;;;;;4803656;29;20435;-81
2022/06/03 14:18:04;;;;;;;2.63;1.25;;;24.10;38.80;;;;;;4808142;29;20043;-82
2022/06/03 14:20:53;;;;;;;4.13;1.35;;;24.10;39.00;;;;;;4824645;29;20078;-83
2022/06/03 14:23:30;;;;;;;1.83;1.17;;;24.10;38.70;;;;;;4817118;29;20529;-82
2022/06/03 14:26:05;;;;;;;2.80;1.20;;;24.10;38.70;;;;;;4818306;29;20054;-83
2022/06/03 14:28:42;;;;;;;2.85;1.25;;;24.10;38.50;;;;;;4826862;29;20047;-83
2022/06/03 14:31:31;;;;;;;4.07;1.60;;;24.10;38.50;;;;;;4805340;29;20053;-82
2022/06/03 14:34:20;;;;;;;2.85;1.00;;;24.10;38.00;;;;;;4808546;29;20079;-85
2022/06/03 14:36:48;;;;;;;2.83;1.05;;;24.00;37.90;;;;;;4825476;29;20110;-82
2022/06/03 14:39:22;;;;;;;3.38;1.23;;;24.00;38.80;;;;;;4807435;29;20047;-84
2022/06/03 14:41:53;;;;;;;2.42;1.13;;;23.90;38.40;;;;;;4808589;29;20046;-83
2022/06/03 14:44:23;;;;;;;4.22;1.10;;;23.90;38.10;;;;;;4800545;29;20146;-83
2022/06/03 14:46:57;;;;;;;2.33;1.10;;;23.90;38.60;;;;;;4807262;29;20599;-84
2022/06/03 14:49:31;;;;;;;;;;;23.80;38.70;;;;;;4813350;29;20062;-85
2022/06/03 14:52:06;;;;;;;;;;;23.70;38.70;;;;;;4816098;29;19925;-84
2022/06/03 14:54:43;;;;;;;3.65;1.50;;;23.60;38.70;;;;;;4826171;29;19941;-85
2022/06/03 14:57:18;;;;;;;2.22;1.20;;;23.50;38.20;;;;;;4818118;29;20054;-84
2022/06/03 15:00:05;;;;;;;2.30;1.30;;;23.50;38.20;;;;;;4791900;29;20550;-85
2022/06/03 15:02:43;;;;;;;2.70;1.27;;;23.40;38.40;;;;;;4809720;29;20070;-85
2022/06/03 15:05:29;;;;;;;2.72;1.70;;;23.40;38.70;;;;;;4825666;29;20086;-84
2022/06/03 15:08:01;;;;;;;3.33;1.38;;;23.50;38.60;;;;;;4802546;29;20467;-92
2022/06/03 15:10:28;;;;;;;2.92;1.20;;;23.40;39.50;;;;;;4793888;29;20043;-84